sensor_id;sensor_type;location;lat;lon;timestamp;pressure;altitude;pressure_sealevel;temperature;humidity
46211;BME280;52144;48.040;-1.594;2023-04-26T00:01:42;101010.97;;;17.90;61.33
46211;BME280;52144;48.040;-1.594;2023-04-26T00:04:12;101013.53;;;18.04;60.05
46211;BME280;52144;48.040;-1.594;2023-04-26T00:06:40;101011.50;;;17.70;62.11
46211;BME280;52144;48.040;-1.594;2023-04-26T00:09:08;101000.84;;;17.81;61.72
46211;BME280;52144;48.040;-1.594;2023-04-26T00:11:36;101010.88;;;18.29;60.09
46211;BME280;52144;48.040;-1.594;2023-04-26T00:14:03;101012.56;;;18.06;60.14
46211;BME280;52144;48.040;-1.594;2023-04-26T00:16:31;101008.91;;;17.68;61.49
46211;BME280;52144;48.040;-1.594;2023-04-26T00:18:59;101001.91;;;17.65;61.58
46211;BME280;52144;48.040;-1.594;2023-04-26T00:21:29;100990.25;;;17.78;61.50
46211;BME280;52144;48.040;-1.594;2023-04-26T00:23:56;100989.19;;;17.93;61.44
46211;BME280;52144;48.040;-1.594;2023-04-26T00:26:24;100991.00;;;17.93;60.66
46211;BME280;52144;48.040;-1.594;2023-04-26T00:28:52;100994.28;;;18.22;60.27
46211;BME280;52144;48.040;-1.594;2023-04-26T00:31:20;100989.94;;;17.70;62.07
46211;BME280;52144;48.040;-1.594;2023-04-26T00:33:48;100990.91;;;17.94;61.09
46211;BME280;52144;48.040;-1.594;2023-04-26T00:36:16;100991.34;;;18.25;60.20
46211;BME280;52144;48.040;-1.594;2023-04-26T00:38:46;100999.97;;;17.93;60.79
46211;BME280;52144;48.040;-1.594;2023-04-26T00:41:14;100999.91;;;18.43;59.98
46211;BME280;52144;48.040;-1.594;2023-04-26T00:43:41;101012.13;;;18.12;59.47
46211;BME280;52144;48.040;-1.594;2023-04-26T00:46:10;101002.78;;;18.29;59.06
46211;BME280;52144;48.040;-1.594;2023-04-26T00:48:38;101004.94;;;18.23;59.09
46211;BME280;52144;48.040;-1.594;2023-04-26T00:51:06;101007.50;;;18.38;58.57
46211;BME280;52144;48.040;-1.594;2023-04-26T00:53:34;101003.72;;;18.03;60.48
46211;BME280;52144;48.040;-1.594;2023-04-26T00:56:05;101004.19;;;17.97;60.22
46211;BME280;52144;48.040;-1.594;2023-04-26T00:58:33;101004.38;;;17.69;61.66
46211;BME280;52144;48.040;-1.594;2023-04-26T01:01:01;100993.94;;;17.77;61.09
46211;BME280;52144;48.040;-1.594;2023-04-26T01:03:29;100998.69;;;18.23;60.26
46211;BME280;52144;48.040;-1.594;2023-04-26T01:05:57;100994.91;;;18.50;60.47
46211;BME280;52144;48.040;-1.594;2023-04-26T01:08:25;100991.44;;;17.74;61.12
46211;BME280;52144;48.040;-1.594;2023-04-26T01:10:53;100980.34;;;17.78;61.62
46211;BME280;52144;48.040;-1.594;2023-04-26T01:13:22;100979.22;;;18.07;60.80
46211;BME280;52144;48.040;-1.594;2023-04-26T01:15:52;100977.97;;;17.74;62.44
46211;BME280;52144;48.040;-1.594;2023-04-26T01:18:21;100981.63;;;17.98;61.46
46211;BME280;52144;48.040;-1.594;2023-04-26T01:20:49;100969.13;;;17.97;61.34
46211;BME280;52144;48.040;-1.594;2023-04-26T01:23:19;100968.81;;;17.76;61.66
46211;BME280;52144;48.040;-1.594;2023-04-26T01:25:47;100967.53;;;17.43;63.36
46211;BME280;52144;48.040;-1.594;2023-04-26T01:28:15;100963.00;;;17.70;62.86
46211;BME280;52144;48.040;-1.594;2023-04-26T01:30:43;100960.63;;;17.52;62.33
46211;BME280;52144;48.040;-1.594;2023-04-26T01:33:11;100970.25;;;17.43;63.83
46211;BME280;52144;48.040;-1.594;2023-04-26T01:35:41;100962.69;;;17.61;63.10
46211;BME280;52144;48.040;-1.594;2023-04-26T01:38:08;100969.59;;;17.91;61.50
46211;BME280;52144;48.040;-1.594;2023-04-26T01:40:37;100962.00;;;17.71;62.28
46211;BME280;52144;48.040;-1.594;2023-04-26T01:43:09;100959.34;;;18.20;60.90
46211;BME280;52144;48.040;-1.594;2023-04-26T01:45:37;100954.47;;;17.76;62.69
46211;BME280;52144;48.040;-1.594;2023-04-26T01:48:05;100956.41;;;17.74;62.71
46211;BME280;52144;48.040;-1.594;2023-04-26T01:50:34;100947.25;;;18.26;60.07
46211;BME280;52144;48.040;-1.594;2023-04-26T01:53:02;100951.81;;;18.13;60.13
46211;BME280;52144;48.040;-1.594;2023-04-26T01:55:30;100949.72;;;17.92;60.93
46211;BME280;52144;48.040;-1.594;2023-04-26T01:57:59;100946.78;;;17.82;61.93
46211;BME280;52144;48.040;-1.594;2023-04-26T02:00:27;100946.63;;;17.86;61.41
46211;BME280;52144;48.040;-1.594;2023-04-26T02:02:56;100945.00;;;18.20;61.51
46211;BME280;52144;48.040;-1.594;2023-04-26T02:05:24;100943.13;;;17.96;60.78
46211;BME280;52144;48.040;-1.594;2023-04-26T02:07:52;100941.47;;;18.07;61.23
46211;BME280;52144;48.040;-1.594;2023-04-26T02:10:19;100949.47;;;18.32;60.42
46211;BME280;52144;48.040;-1.594;2023-04-26T02:12:47;100949.19;;;18.48;59.47
46211;BME280;52144;48.040;-1.594;2023-04-26T02:15:16;100943.25;;;18.19;60.03
46211;BME280;52144;48.040;-1.594;2023-04-26T02:17:44;100940.09;;;18.25;60.09
46211;BME280;52144;48.040;-1.594;2023-04-26T02:20:12;100930.97;;;17.78;61.35
46211;BME280;52144;48.040;-1.594;2023-04-26T02:22:40;100936.84;;;18.09;60.70
46211;BME280;52144;48.040;-1.594;2023-04-26T02:25:08;100931.53;;;18.20;59.79
46211;BME280;52144;48.040;-1.594;2023-04-26T02:27:37;100929.56;;;18.22;60.20
46211;BME280;52144;48.040;-1.594;2023-04-26T02:30:06;100922.16;;;18.37;60.90
46211;BME280;52144;48.040;-1.594;2023-04-26T02:32:36;100918.81;;;18.33;59.87
46211;BME280;52144;48.040;-1.594;2023-04-26T02:35:04;100921.84;;;18.04;60.54
46211;BME280;52144;48.040;-1.594;2023-04-26T02:37:32;100919.97;;;18.42;60.08
46211;BME280;52144;48.040;-1.594;2023-04-26T02:40:00;100921.19;;;18.14;60.19
46211;BME280;52144;48.040;-1.594;2023-04-26T02:42:27;100919.81;;;18.32;59.66
46211;BME280;52144;48.040;-1.594;2023-04-26T02:44:55;100919.44;;;18.72;58.94
46211;BME280;52144;48.040;-1.594;2023-04-26T02:47:23;100915.44;;;17.69;61.96
46211;BME280;52144;48.040;-1.594;2023-04-26T02:49:53;100910.47;;;17.88;61.28
46211;BME280;52144;48.040;-1.594;2023-04-26T02:52:21;100919.88;;;17.70;62.74
46211;BME280;52144;48.040;-1.594;2023-04-26T02:54:49;100910.78;;;17.34;63.34
46211;BME280;52144;48.040;-1.594;2023-04-26T02:57:16;100909.75;;;17.86;62.34
46211;BME280;52144;48.040;-1.594;2023-04-26T02:59:44;100918.63;;;18.23;60.48
46211;BME280;52144;48.040;-1.594;2023-04-26T03:02:12;100911.66;;;18.21;61.83
46211;BME280;52144;48.040;-1.594;2023-04-26T03:04:40;100902.50;;;17.87;61.99
46211;BME280;52144;48.040;-1.594;2023-04-26T03:07:09;100910.09;;;18.30;60.70
46211;BME280;52144;48.040;-1.594;2023-04-26T03:09:37;100907.56;;;18.15;60.74
46211;BME280;52144;48.040;-1.594;2023-04-26T03:12:05;100906.31;;;18.32;60.00
46211;BME280;52144;48.040;-1.594;2023-04-26T03:14:33;100903.16;;;18.14;60.78
46211;BME280;52144;48.040;-1.594;2023-04-26T03:17:01;100899.81;;;17.87;62.22
46211;BME280;52144;48.040;-1.594;2023-04-26T03:19:29;100897.66;;;17.79;61.59
46211;BME280;52144;48.040;-1.594;2023-04-26T03:21:57;100889.16;;;17.72;62.70
46211;BME280;52144;48.040;-1.594;2023-04-26T03:24:26;100896.78;;;17.29;63.58
46211;BME280;52144;48.040;-1.594;2023-04-26T03:26:54;100901.69;;;17.60;63.97
46211;BME280;52144;48.040;-1.594;2023-04-26T03:29:21;100901.84;;;17.96;62.02
46211;BME280;52144;48.040;-1.594;2023-04-26T03:31:49;100894.91;;;18.04;61.37
46211;BME280;52144;48.040;-1.594;2023-04-26T03:34:17;100884.72;;;17.84;62.08
46211;BME280;52144;48.040;-1.594;2023-04-26T03:36:44;100884.19;;;17.79;63.15
46211;BME280;52144;48.040;-1.594;2023-04-26T03:39:12;100883.38;;;18.02;61.82
46211;BME280;52144;48.040;-1.594;2023-04-26T03:41:42;100877.13;;;18.26;60.43
46211;BME280;52144;48.040;-1.594;2023-04-26T03:44:10;100867.84;;;17.69;61.56
46211;BME280;52144;48.040;-1.594;2023-04-26T03:46:38;100870.84;;;17.64;63.06
46211;BME280;52144;48.040;-1.594;2023-04-26T03:49:05;100868.19;;;18.01;61.43
46211;BME280;52144;48.040;-1.594;2023-04-26T03:51:33;100858.97;;;17.43;63.80
46211;BME280;52144;48.040;-1.594;2023-04-26T03:54:01;100863.91;;;17.86;61.69
46211;BME280;52144;48.040;-1.594;2023-04-26T03:56:29;100865.88;;;17.71;62.00
46211;BME280;52144;48.040;-1.594;2023-04-26T03:58:58;100871.91;;;17.75;62.02
46211;BME280;52144;48.040;-1.594;2023-04-26T04:01:26;100880.50;;;18.17;61.07
46211;BME280;52144;48.040;-1.594;2023-04-26T04:03:54;100873.50;;;17.90;62.00
46211;BME280;52144;48.040;-1.594;2023-04-26T04:06:22;100872.28;;;18.42;60.88
46211;BME280;52144;48.040;-1.594;2023-04-26T04:08:50;100861.13;;;17.88;62.10
46211;BME280;52144;48.040;-1.594;2023-04-26T04:11:18;100858.63;;;17.48;64.79
46211;BME280;52144;48.040;-1.594;2023-04-26T04:13:46;100862.44;;;17.07;66.05
46211;BME280;52144;48.040;-1.594;2023-04-26T04:16:15;100869.88;;;17.03;66.45
46211;BME280;52144;48.040;-1.594;2023-04-26T04:18:43;100869.19;;;17.38;66.41
46211;BME280;52144;48.040;-1.594;2023-04-26T04:21:11;100871.03;;;17.87;63.43
46211;BME280;52144;48.040;-1.594;2023-04-26T04:23:39;100869.19;;;17.38;64.95
46211;BME280;52144;48.040;-1.594;2023-04-26T04:26:07;100871.75;;;17.52;64.80
46211;BME280;52144;48.040;-1.594;2023-04-26T04:28:38;100871.53;;;17.55;64.63
46211;BME280;52144;48.040;-1.594;2023-04-26T04:31:06;100872.78;;;17.62;65.78
46211;BME280;52144;48.040;-1.594;2023-04-26T04:33:36;100866.28;;;17.78;63.45
46211;BME280;52144;48.040;-1.594;2023-04-26T04:36:04;100871.66;;;17.91;63.06
46211;BME280;52144;48.040;-1.594;2023-04-26T04:38:33;100868.88;;;17.79;64.61
46211;BME280;52144;48.040;-1.594;2023-04-26T04:41:01;100866.09;;;17.68;64.83
46211;BME280;52144;48.040;-1.594;2023-04-26T04:43:29;100871.09;;;17.61;65.01
46211;BME280;52144;48.040;-1.594;2023-04-26T04:45:57;100872.53;;;17.78;65.28
46211;BME280;52144;48.040;-1.594;2023-04-26T04:48:25;100872.13;;;17.35;66.30
46211;BME280;52144;48.040;-1.594;2023-04-26T04:50:54;100871.13;;;17.36;66.73
46211;BME280;52144;48.040;-1.594;2023-04-26T04:53:21;100868.94;;;17.54;66.51
46211;BME280;52144;48.040;-1.594;2023-04-26T04:55:49;100873.09;;;17.71;64.59
46211;BME280;52144;48.040;-1.594;2023-04-26T04:58:17;100880.22;;;17.72;66.23
46211;BME280;52144;48.040;-1.594;2023-04-26T05:00:45;100882.25;;;17.81;65.84
46211;BME280;52144;48.040;-1.594;2023-04-26T05:03:12;100874.06;;;17.70;66.75
46211;BME280;52144;48.040;-1.594;2023-04-26T05:05:40;100871.22;;;17.47;67.37
46211;BME280;52144;48.040;-1.594;2023-04-26T05:08:10;100872.94;;;17.48;67.75
46211;BME280;52144;48.040;-1.594;2023-04-26T05:10:37;100878.88;;;17.53;68.24
46211;BME280;52144;48.040;-1.594;2023-04-26T05:13:05;100878.06;;;17.77;66.85
46211;BME280;52144;48.040;-1.594;2023-04-26T05:15:33;100889.34;;;17.82;66.10
46211;BME280;52144;48.040;-1.594;2023-04-26T05:18:01;100883.75;;;17.22;69.56
46211;BME280;52144;48.040;-1.594;2023-04-26T05:20:29;100887.28;;;17.36;68.19
46211;BME280;52144;48.040;-1.594;2023-04-26T05:22:56;100892.25;;;17.03;70.23
46211;BME280;52144;48.040;-1.594;2023-04-26T05:25:26;100885.75;;;16.55;72.45
46211;BME280;52144;48.040;-1.594;2023-04-26T05:27:53;100887.31;;;16.84;71.95
46211;BME280;52144;48.040;-1.594;2023-04-26T05:30:21;100888.41;;;16.82;71.87
46211;BME280;52144;48.040;-1.594;2023-04-26T05:32:49;100883.44;;;17.27;69.59
46211;BME280;52144;48.040;-1.594;2023-04-26T05:35:17;100884.84;;;17.07;70.82
46211;BME280;52144;48.040;-1.594;2023-04-26T05:37:44;100892.59;;;16.99;71.09
46211;BME280;52144;48.040;-1.594;2023-04-26T05:40:12;100888.56;;;16.66;71.85
46211;BME280;52144;48.040;-1.594;2023-04-26T05:42:42;100890.28;;;16.67;71.48
46211;BME280;52144;48.040;-1.594;2023-04-26T05:45:10;100884.84;;;16.41;72.70
46211;BME280;52144;48.040;-1.594;2023-04-26T05:47:37;100881.47;;;16.78;70.40
46211;BME280;52144;48.040;-1.594;2023-04-26T05:50:06;100890.56;;;16.90;71.16
46211;BME280;52144;48.040;-1.594;2023-04-26T05:52:34;100882.84;;;16.58;72.33
46211;BME280;52144;48.040;-1.594;2023-04-26T05:55:02;100878.47;;;17.21;70.52
46211;BME280;52144;48.040;-1.594;2023-04-26T05:57:31;100887.97;;;17.14;70.73
46211;BME280;52144;48.040;-1.594;2023-04-26T06:00:02;100887.97;;;17.27;70.18
46211;BME280;52144;48.040;-1.594;2023-04-26T06:02:31;100889.34;;;17.19;68.66
46211;BME280;52144;48.040;-1.594;2023-04-26T06:04:59;100881.06;;;17.22;69.69
46211;BME280;52144;48.040;-1.594;2023-04-26T06:07:27;100890.53;;;18.15;66.28
46211;BME280;52144;48.040;-1.594;2023-04-26T06:09:55;100890.53;;;17.41;68.44
46211;BME280;52144;48.040;-1.594;2023-04-26T06:12:23;100889.84;;;17.50;68.63
46211;BME280;52144;48.040;-1.594;2023-04-26T06:14:51;100886.69;;;17.69;67.81
46211;BME280;52144;48.040;-1.594;2023-04-26T06:17:20;100894.09;;;17.78;67.86
46211;BME280;52144;48.040;-1.594;2023-04-26T06:19:48;100892.59;;;17.87;68.39
46211;BME280;52144;48.040;-1.594;2023-04-26T06:22:16;100893.16;;;17.67;69.07
46211;BME280;52144;48.040;-1.594;2023-04-26T06:24:44;100893.16;;;18.28;67.77
46211;BME280;52144;48.040;-1.594;2023-04-26T06:27:11;100898.41;;;17.94;68.23
46211;BME280;52144;48.040;-1.594;2023-04-26T06:29:39;100894.72;;;17.95;67.68
46211;BME280;52144;48.040;-1.594;2023-04-26T06:32:09;100906.13;;;17.98;68.61
46211;BME280;52144;48.040;-1.594;2023-04-26T06:34:38;100896.69;;;17.80;69.76
46211;BME280;52144;48.040;-1.594;2023-04-26T06:37:06;100905.91;;;18.01;69.27
46211;BME280;52144;48.040;-1.594;2023-04-26T06:39:34;100895.69;;;17.31;70.95
46211;BME280;52144;48.040;-1.594;2023-04-26T06:42:04;100906.59;;;17.92;69.76
46211;BME280;52144;48.040;-1.594;2023-04-26T06:44:32;100901.19;;;17.92;69.36
46211;BME280;52144;48.040;-1.594;2023-04-26T06:46:59;100904.72;;;17.56;71.10
46211;BME280;52144;48.040;-1.594;2023-04-26T06:49:27;100890.34;;;17.81;71.59
46211;BME280;52144;48.040;-1.594;2023-04-26T06:51:56;100898.59;;;18.03;69.50
46211;BME280;52144;48.040;-1.594;2023-04-26T06:54:27;100891.19;;;17.19;73.14
46211;BME280;52144;48.040;-1.594;2023-04-26T06:56:55;100890.25;;;17.70;74.05
46211;BME280;52144;48.040;-1.594;2023-04-26T06:59:24;100888.53;;;17.56;73.35
46211;BME280;52144;48.040;-1.594;2023-04-26T07:01:52;100886.72;;;17.56;74.40
46211;BME280;52144;48.040;-1.594;2023-04-26T07:04:20;100892.19;;;18.04;72.20
46211;BME280;52144;48.040;-1.594;2023-04-26T07:06:48;100896.09;;;18.00;70.61
46211;BME280;52144;48.040;-1.594;2023-04-26T07:09:18;100887.63;;;17.94;70.72
46211;BME280;52144;48.040;-1.594;2023-04-26T07:11:45;100884.00;;;17.56;73.93
46211;BME280;52144;48.040;-1.594;2023-04-26T07:14:13;100892.16;;;17.93;75.42
46211;BME280;52144;48.040;-1.594;2023-04-26T07:16:42;100889.75;;;18.01;72.75
46211;BME280;52144;48.040;-1.594;2023-04-26T07:19:10;100889.56;;;18.40;71.88
46211;BME280;52144;48.040;-1.594;2023-04-26T07:21:38;100885.84;;;18.06;72.21
46211;BME280;52144;48.040;-1.594;2023-04-26T07:24:06;100879.00;;;17.76;74.31
46211;BME280;52144;48.040;-1.594;2023-04-26T07:26:35;100881.19;;;17.83;74.26
46211;BME280;52144;48.040;-1.594;2023-04-26T07:29:03;100879.34;;;17.71;73.61
46211;BME280;52144;48.040;-1.594;2023-04-26T07:31:31;100886.88;;;17.92;73.80
46211;BME280;52144;48.040;-1.594;2023-04-26T07:33:59;100884.47;;;18.00;72.31
46211;BME280;52144;48.040;-1.594;2023-04-26T07:36:26;100878.44;;;18.56;71.01
46211;BME280;52144;48.040;-1.594;2023-04-26T07:38:54;100886.41;;;18.22;73.37
46211;BME280;52144;48.040;-1.594;2023-04-26T07:41:22;100881.41;;;18.29;70.79
46211;BME280;52144;48.040;-1.594;2023-04-26T07:43:51;100888.00;;;17.63;72.87
46211;BME280;52144;48.040;-1.594;2023-04-26T07:46:19;100891.97;;;18.08;71.30
46211;BME280;52144;48.040;-1.594;2023-04-26T07:48:47;100893.88;;;18.18;70.81
46211;BME280;52144;48.040;-1.594;2023-04-26T07:51:15;100888.56;;;18.41;69.66
46211;BME280;52144;48.040;-1.594;2023-04-26T07:53:43;100896.75;;;18.28;69.05
46211;BME280;52144;48.040;-1.594;2023-04-26T07:56:11;100888.50;;;18.89;67.73
46211;BME280;52144;48.040;-1.594;2023-04-26T07:58:39;100888.50;;;18.89;67.10
46211;BME280;52144;48.040;-1.594;2023-04-26T08:01:08;100887.34;;;18.45;67.91
46211;BME280;52144;48.040;-1.594;2023-04-26T08:03:37;100890.97;;;18.57;68.86
46211;BME280;52144;48.040;-1.594;2023-04-26T08:06:05;100886.78;;;18.64;67.23
46211;BME280;52144;48.040;-1.594;2023-04-26T08:08:34;100897.13;;;18.35;69.27
46211;BME280;52144;48.040;-1.594;2023-04-26T08:11:08;100897.75;;;18.74;67.94
46211;BME280;52144;48.040;-1.594;2023-04-26T08:13:36;100891.94;;;19.02;65.75
46211;BME280;52144;48.040;-1.594;2023-04-26T08:16:04;100900.88;;;18.92;66.42
46211;BME280;52144;48.040;-1.594;2023-04-26T08:18:33;100896.50;;;19.02;66.71
46211;BME280;52144;48.040;-1.594;2023-04-26T08:21:01;100890.00;;;19.27;64.90
46211;BME280;52144;48.040;-1.594;2023-04-26T08:23:31;100897.19;;;18.93;66.22
46211;BME280;52144;48.040;-1.594;2023-04-26T08:26:00;100903.00;;;18.64;68.09
46211;BME280;52144;48.040;-1.594;2023-04-26T08:28:28;100897.97;;;19.51;65.12
46211;BME280;52144;48.040;-1.594;2023-04-26T08:30:56;100898.44;;;19.00;64.88
46211;BME280;52144;48.040;-1.594;2023-04-26T08:33:24;100898.25;;;19.48;64.80
46211;BME280;52144;48.040;-1.594;2023-04-26T08:35:53;100902.63;;;19.04;66.16
46211;BME280;52144;48.040;-1.594;2023-04-26T08:38:21;100897.19;;;18.81;67.59
46211;BME280;52144;48.040;-1.594;2023-04-26T08:40:50;100909.66;;;19.18;67.06
46211;BME280;52144;48.040;-1.594;2023-04-26T08:43:18;100902.03;;;19.12;65.26
46211;BME280;52144;48.040;-1.594;2023-04-26T08:45:46;100902.66;;;19.15;65.68
46211;BME280;52144;48.040;-1.594;2023-04-26T08:48:14;100902.88;;;19.80;64.50
46211;BME280;52144;48.040;-1.594;2023-04-26T08:50:44;100904.13;;;19.76;62.79
46211;BME280;52144;48.040;-1.594;2023-04-26T08:53:15;100905.78;;;18.87;67.15
46211;BME280;52144;48.040;-1.594;2023-04-26T08:55:47;100902.53;;;19.51;64.37
46211;BME280;52144;48.040;-1.594;2023-04-26T08:58:16;100913.94;;;19.43;65.29
46211;BME280;52144;48.040;-1.594;2023-04-26T09:00:44;100895.03;;;19.54;66.66
46211;BME280;52144;48.040;-1.594;2023-04-26T09:03:13;100908.66;;;19.19;67.69
46211;BME280;52144;48.040;-1.594;2023-04-26T09:05:41;100903.53;;;19.38;66.58
46211;BME280;52144;48.040;-1.594;2023-04-26T09:08:14;100897.38;;;19.81;65.77
46211;BME280;52144;48.040;-1.594;2023-04-26T09:10:42;100899.03;;;20.05;64.30
46211;BME280;52144;48.040;-1.594;2023-04-26T09:13:10;100905.56;;;20.67;63.42
46211;BME280;52144;48.040;-1.594;2023-04-26T09:15:40;100909.16;;;20.35;65.12
46211;BME280;52144;48.040;-1.594;2023-04-26T09:18:18;100916.94;;;20.61;64.17
46211;BME280;52144;48.040;-1.594;2023-04-26T09:21:01;100916.91;;;19.74;65.35
46211;BME280;52144;48.040;-1.594;2023-04-26T09:23:30;100914.63;;;20.45;65.50
46211;BME280;52144;48.040;-1.594;2023-04-26T09:26:14;100915.28;;;20.05;64.03
46211;BME280;52144;48.040;-1.594;2023-04-26T09:28:42;100923.16;;;19.86;66.53
46211;BME280;52144;48.040;-1.594;2023-04-26T09:31:35;100930.34;;;20.51;67.18
46211;BME280;52144;48.040;-1.594;2023-04-26T09:34:04;100929.94;;;20.88;65.04
46211;BME280;52144;48.040;-1.594;2023-04-26T09:36:32;100939.59;;;20.60;65.10
46211;BME280;52144;48.040;-1.594;2023-04-26T09:39:01;100947.09;;;20.01;66.39
46211;BME280;52144;48.040;-1.594;2023-04-26T09:41:41;100951.88;;;20.53;67.21
46211;BME280;52144;48.040;-1.594;2023-04-26T09:44:20;100943.56;;;20.77;66.74
46211;BME280;52144;48.040;-1.594;2023-04-26T09:47:07;100936.69;;;20.29;66.05
46211;BME280;52144;48.040;-1.594;2023-04-26T09:49:43;100935.59;;;19.77;68.15
46211;BME280;52144;48.040;-1.594;2023-04-26T09:52:12;100933.22;;;20.38;67.19
46211;BME280;52144;48.040;-1.594;2023-04-26T09:54:43;100931.03;;;20.32;66.54
46211;BME280;52144;48.040;-1.594;2023-04-26T09:57:11;100937.41;;;20.96;65.50
46211;BME280;52144;48.040;-1.594;2023-04-26T09:59:41;100931.47;;;20.49;66.07
46211;BME280;52144;48.040;-1.594;2023-04-26T10:02:13;100930.81;;;20.56;64.91
46211;BME280;52144;48.040;-1.594;2023-04-26T10:04:43;100934.84;;;21.15;63.54
46211;BME280;52144;48.040;-1.594;2023-04-26T10:07:13;100927.97;;;21.42;62.38
46211;BME280;52144;48.040;-1.594;2023-04-26T10:09:42;100941.75;;;21.08;64.47
46211;BME280;52144;48.040;-1.594;2023-04-26T10:12:12;100938.59;;;21.03;63.95
46211;BME280;52144;48.040;-1.594;2023-04-26T10:14:41;100930.47;;;20.17;66.25
46211;BME280;52144;48.040;-1.594;2023-04-26T10:17:10;100937.94;;;20.57;65.11
46211;BME280;52144;48.040;-1.594;2023-04-26T10:19:39;100931.91;;;20.86;66.23
46211;BME280;52144;48.040;-1.594;2023-04-26T10:22:13;100926.63;;;21.06;63.40
46211;BME280;52144;48.040;-1.594;2023-04-26T10:24:44;100919.59;;;21.76;61.52
46211;BME280;52144;48.040;-1.594;2023-04-26T10:27:12;100925.91;;;21.03;64.24
46211;BME280;52144;48.040;-1.594;2023-04-26T10:30:05;100921.19;;;21.27;64.73
46211;BME280;52144;48.040;-1.594;2023-04-26T10:36:08;100924.16;;;22.35;60.14
46211;BME280;52144;48.040;-1.594;2023-04-26T10:38:37;100917.78;;;22.06;60.24
46211;BME280;52144;48.040;-1.594;2023-04-26T10:41:29;100912.69;;;22.61;59.18
46211;BME280;52144;48.040;-1.594;2023-04-26T10:43:59;100913.53;;;22.91;59.27
46211;BME280;52144;48.040;-1.594;2023-04-26T10:46:38;100910.59;;;23.31;57.51
46211;BME280;52144;48.040;-1.594;2023-04-26T10:49:17;100906.34;;;23.19;57.61
46211;BME280;52144;48.040;-1.594;2023-04-26T10:52:07;100923.00;;;23.06;56.79
46211;BME280;52144;48.040;-1.594;2023-04-26T10:54:52;100908.28;;;23.36;57.31
46211;BME280;52144;48.040;-1.594;2023-04-26T10:57:23;100911.84;;;22.70;58.40
46211;BME280;52144;48.040;-1.594;2023-04-26T11:00:15;100921.16;;;22.48;59.83
46211;BME280;52144;48.040;-1.594;2023-04-26T11:02:43;100915.81;;;22.86;58.45
46211;BME280;52144;48.040;-1.594;2023-04-26T11:05:32;100912.25;;;23.14;58.20
46211;BME280;52144;48.040;-1.594;2023-04-26T11:08:06;100903.81;;;22.88;57.86
46211;BME280;52144;48.040;-1.594;2023-04-26T11:10:38;100918.00;;;22.72;58.39
46211;BME280;52144;48.040;-1.594;2023-04-26T11:13:07;100919.56;;;23.04;58.86
46211;BME280;52144;48.040;-1.594;2023-04-26T11:15:35;100905.66;;;23.17;57.14
46211;BME280;52144;48.040;-1.594;2023-04-26T11:18:03;100912.28;;;23.42;57.38
46211;BME280;52144;48.040;-1.594;2023-04-26T11:20:32;100913.69;;;23.46;56.67
46211;BME280;52144;48.040;-1.594;2023-04-26T11:23:00;100906.88;;;23.32;55.88
46211;BME280;52144;48.040;-1.594;2023-04-26T11:25:28;100912.59;;;23.39;56.49
46211;BME280;52144;48.040;-1.594;2023-04-26T11:27:58;100919.16;;;23.36;57.06
46211;BME280;52144;48.040;-1.594;2023-04-26T11:30:28;100920.88;;;23.37;57.32
46211;BME280;52144;48.040;-1.594;2023-04-26T11:32:57;100928.09;;;22.99;57.45
46211;BME280;52144;48.040;-1.594;2023-04-26T11:35:26;100925.53;;;23.17;57.99
46211;BME280;52144;48.040;-1.594;2023-04-26T11:37:57;100927.56;;;22.28;60.51
46211;BME280;52144;48.040;-1.594;2023-04-26T11:40:29;100925.34;;;21.92;62.38
46211;BME280;52144;48.040;-1.594;2023-04-26T11:43:00;100924.44;;;22.42;61.24
46211;BME280;52144;48.040;-1.594;2023-04-26T11:45:32;100927.84;;;22.34;61.58
46211;BME280;52144;48.040;-1.594;2023-04-26T11:48:02;100923.25;;;22.83;60.56
46211;BME280;52144;48.040;-1.594;2023-04-26T11:50:31;100930.28;;;22.86;62.26
46211;BME280;52144;48.040;-1.594;2023-04-26T11:53:01;100938.31;;;22.78;62.39
46211;BME280;52144;48.040;-1.594;2023-04-26T11:55:31;100927.75;;;23.32;59.38
46211;BME280;52144;48.040;-1.594;2023-04-26T11:57:59;100932.56;;;23.10;57.83
46211;BME280;52144;48.040;-1.594;2023-04-26T12:00:28;100920.38;;;22.95;60.01
46211;BME280;52144;48.040;-1.594;2023-04-26T12:03:04;100920.69;;;23.01;60.71
46211;BME280;52144;48.040;-1.594;2023-04-26T12:05:33;100915.06;;;23.60;59.16
46211;BME280;52144;48.040;-1.594;2023-04-26T12:08:01;100915.25;;;23.76;56.55
46211;BME280;52144;48.040;-1.594;2023-04-26T12:10:31;100909.81;;;23.86;57.51
46211;BME280;52144;48.040;-1.594;2023-04-26T12:12:59;100900.38;;;24.62;54.88
46211;BME280;52144;48.040;-1.594;2023-04-26T12:15:28;100890.09;;;24.38;55.05
46211;BME280;52144;48.040;-1.594;2023-04-26T12:17:59;100899.03;;;24.66;54.02
46211;BME280;52144;48.040;-1.594;2023-04-26T12:20:32;100888.88;;;24.32;54.64
46211;BME280;52144;48.040;-1.594;2023-04-26T12:23:03;100889.72;;;23.87;55.99
46211;BME280;52144;48.040;-1.594;2023-04-26T12:25:32;100884.19;;;24.07;55.35
46211;BME280;52144;48.040;-1.594;2023-04-26T12:28:02;100892.72;;;23.29;55.73
46211;BME280;52144;48.040;-1.594;2023-04-26T12:30:30;100892.31;;;23.89;56.00
46211;BME280;52144;48.040;-1.594;2023-04-26T12:32:59;100895.44;;;24.12;55.80
46211;BME280;52144;48.040;-1.594;2023-04-26T12:35:43;100894.38;;;24.40;54.80
46211;BME280;52144;48.040;-1.594;2023-04-26T12:38:11;100891.72;;;24.13;55.70
46211;BME280;52144;48.040;-1.594;2023-04-26T12:40:40;100896.13;;;24.14;57.23
46211;BME280;52144;48.040;-1.594;2023-04-26T12:43:08;100912.91;;;24.37;55.61
46211;BME280;52144;48.040;-1.594;2023-04-26T12:45:36;100911.69;;;24.03;55.84
46211;BME280;52144;48.040;-1.594;2023-04-26T12:48:05;100916.88;;;24.42;55.85
46211;BME280;52144;48.040;-1.594;2023-04-26T12:50:33;100911.19;;;24.54;54.44
46211;BME280;52144;48.040;-1.594;2023-04-26T12:53:00;100902.69;;;23.75;57.65
46211;BME280;52144;48.040;-1.594;2023-04-26T12:55:28;100917.50;;;23.91;57.50